createdAt,value
2022-10-05T00:01:27.732Z,101270.00
2022-10-05T00:04:12.062Z,101284.00
2022-10-05T00:06:42.294Z,101290.00
2022-10-05T00:09:20.921Z,101293.00
2022-10-05T00:11:52.379Z,101293.00
2022-10-05T00:14:33.653Z,101286.00
2022-10-05T00:17:05.057Z,101291.00
2022-10-05T00:19:41.560Z,101295.00
2022-10-05T00:22:19.046Z,101278.00
2022-10-05T00:24:52.089Z,101276.00
2022-10-05T00:27:26.303Z,101270.00
2022-10-05T00:30:01.822Z,101270.00
2022-10-05T00:32:32.301Z,101255.00
2022-10-05T00:35:04.951Z,101267.00
2022-10-05T00:37:35.340Z,101275.00
2022-10-05T00:40:06.455Z,101263.00
2022-10-05T00:42:52.354Z,101269.00
2022-10-05T00:45:28.129Z,101273.00
2022-10-05T00:48:17.150Z,101275.00
2022-10-05T00:51:14.147Z,101269.00
2022-10-05T00:53:55.821Z,101269.00
2022-10-05T00:56:49.055Z,101264.00
2022-10-05T00:59:32.479Z,101261.00
2022-10-05T01:02:11.306Z,101267.00
2022-10-05T01:04:52.321Z,101253.00
2022-10-05T01:07:36.548Z,101265.00
2022-10-05T01:10:18.348Z,101260.00
2022-10-05T01:13:00.794Z,101257.00
2022-10-05T01:15:36.556Z,101244.00
2022-10-05T01:18:15.346Z,101245.00
2022-10-05T01:20:57.157Z,101245.00
2022-10-05T01:24:01.459Z,101240.00
2022-10-05T01:27:22.412Z,101254.00
2022-10-05T01:30:02.936Z,101261.00
2022-10-05T01:32:37.844Z,101249.00
2022-10-05T01:35:21.826Z,101239.00
2022-10-05T01:38:06.892Z,101234.00
2022-10-05T01:40:41.864Z,101220.00
2022-10-05T01:43:23.010Z,101226.00
2022-10-05T01:46:06.361Z,101231.00
2022-10-05T01:48:52.957Z,101242.00
2022-10-05T01:51:32.580Z,101237.00
2022-10-05T01:54:13.308Z,101239.00
2022-10-05T01:56:52.877Z,101225.00
2022-10-05T01:59:36.167Z,101232.00
2022-10-05T02:02:13.122Z,101236.00
2022-10-05T02:05:03.942Z,101218.00
2022-10-05T02:07:41.172Z,101229.00
2022-10-05T02:10:22.346Z,101237.00
2022-10-05T02:12:58.692Z,101250.00
2022-10-05T02:15:36.512Z,101241.00
2022-10-05T02:18:17.241Z,101241.00
2022-10-05T02:20:48.661Z,101256.00
2022-10-05T02:23:24.812Z,101248.00
2022-10-05T02:25:56.467Z,101245.00
2022-10-05T02:28:32.456Z,101249.00
2022-10-05T02:31:08.884Z,101252.00
2022-10-05T02:33:42.179Z,101250.00
2022-10-05T02:36:19.072Z,101243.00
2022-10-05T02:39:04.321Z,101247.00
2022-10-05T02:41:49.847Z,101237.00
2022-10-05T02:44:29.864Z,101245.00
2022-10-05T02:47:11.208Z,101239.00
2022-10-05T02:49:50.700Z,101238.00
2022-10-05T02:52:28.034Z,101236.00
2022-10-05T02:55:06.582Z,101226.00
2022-10-05T02:57:42.145Z,101235.00
2022-10-05T03:00:17.753Z,101236.00
2022-10-05T03:02:57.948Z,101237.00
2022-10-05T03:05:36.578Z,101239.00
2022-10-05T03:08:13.327Z,101232.00
2022-10-05T03:10:52.686Z,101229.00
2022-10-05T03:13:31.824Z,101229.00
2022-10-05T03:16:23.249Z,101226.00
2022-10-05T03:19:10.583Z,101223.00
2022-10-05T03:21:58.001Z,101215.00
2022-10-05T03:24:55.237Z,101217.00
2022-10-05T03:27:42.332Z,101220.00
2022-10-05T03:30:19.822Z,101224.00
2022-10-05T03:33:01.792Z,101217.00
2022-10-05T03:35:36.118Z,101218.00
2022-10-05T03:38:18.896Z,101203.00
2022-10-05T03:40:58.635Z,101206.00
2022-10-05T03:43:49.716Z,101203.00
2022-10-05T03:46:28.458Z,101195.00
2022-10-05T03:49:11.453Z,101193.00
2022-10-05T03:51:46.742Z,101195.00
2022-10-05T03:54:26.803Z,101193.00
2022-10-05T03:57:00.127Z,101188.00
2022-10-05T03:59:36.923Z,101191.00
2022-10-05T04:02:12.243Z,101191.00
2022-10-05T04:04:50.464Z,101177.00
2022-10-05T04:07:36.937Z,101180.00
2022-10-05T04:10:19.621Z,101173.00
2022-10-05T04:12:59.590Z,101175.00
2022-10-05T04:15:36.672Z,101177.00
2022-10-05T04:18:23.808Z,101178.00
2022-10-05T04:20:58.824Z,101172.00
2022-10-05T04:23:47.797Z,101177.00
2022-10-05T04:26:28.149Z,101175.00
2022-10-05T04:29:04.084Z,101177.00
2022-10-05T04:32:01.197Z,101169.00
2022-10-05T04:34:56.531Z,101175.00
2022-10-05T04:37:36.600Z,101178.00
2022-10-05T04:40:22.330Z,101176.00
2022-10-05T04:43:08.438Z,101175.00
2022-10-05T04:46:09.075Z,101177.00
2022-10-05T04:49:06.275Z,101167.00
2022-10-05T04:51:50.889Z,101167.00
2022-10-05T04:54:33.510Z,101164.00
2022-10-05T04:57:08.784Z,101165.00
2022-10-05T05:00:06.828Z,101173.00
2022-10-05T05:03:08.933Z,101179.00
2022-10-05T05:06:15.896Z,101185.00
2022-10-05T05:09:17.778Z,101191.00
2022-10-05T05:12:02.094Z,101194.00
2022-10-05T05:14:58.392Z,101193.00
2022-10-05T05:18:03.029Z,101188.00
2022-10-05T05:20:48.280Z,101180.00
2022-10-05T05:23:29.038Z,101181.00
2022-10-05T05:26:11.124Z,101177.00
2022-10-05T05:28:50.843Z,101176.00
2022-10-05T05:31:32.537Z,101179.00
2022-10-05T05:34:13.537Z,101181.00
2022-10-05T05:36:55.808Z,101175.00
2022-10-05T05:39:29.651Z,101179.00
2022-10-05T05:42:08.245Z,101169.00
2022-10-05T05:44:45.343Z,101175.00
2022-10-05T05:47:23.487Z,101168.00
2022-10-05T05:50:07.881Z,101159.00
2022-10-05T05:52:46.165Z,101150.00
2022-10-05T05:55:29.150Z,101159.00
2022-10-05T05:58:06.666Z,101152.00
2022-10-05T06:00:44.030Z,101159.00
2022-10-05T06:03:24.009Z,101167.00
2022-10-05T06:05:58.677Z,101164.00
2022-10-05T06:08:39.446Z,101154.00
2022-10-05T06:11:19.397Z,101165.00
2022-10-05T06:13:51.027Z,101176.00
2022-10-05T06:16:27.298Z,101171.00
2022-10-05T06:19:07.294Z,101164.00
2022-10-05T06:21:42.663Z,101161.00
2022-10-05T06:24:19.951Z,101165.00
2022-10-05T06:27:15.726Z,101161.00
2022-10-05T06:30:05.666Z,101172.00
2022-10-05T06:32:45.934Z,101177.00
2022-10-05T06:35:37.780Z,101166.00
2022-10-05T06:38:27.851Z,101176.00
2022-10-05T06:41:10.521Z,101177.00
2022-10-05T06:43:52.771Z,101176.00
2022-10-05T06:46:27.823Z,101180.00
2022-10-05T06:49:19.895Z,101178.00
2022-10-05T06:52:03.679Z,101182.00
2022-10-05T06:54:51.798Z,101189.00
2022-10-05T06:57:53.113Z,101196.00
2022-10-05T07:00:25.953Z,101189.00
2022-10-05T07:03:05.368Z,101197.00
2022-10-05T07:05:54.766Z,101206.00
2022-10-05T07:08:40.143Z,101199.00
2022-10-05T07:11:23.940Z,101192.00
2022-10-05T07:14:16.278Z,101192.00
2022-10-05T07:17:04.620Z,101185.00
2022-10-05T07:19:44.305Z,101197.00
2022-10-05T07:22:47.741Z,101188.00
2022-10-05T07:25:25.837Z,101191.00
2022-10-05T07:28:02.920Z,101185.00
2022-10-05T07:30:42.975Z,101186.00
2022-10-05T07:33:21.993Z,101190.00
2022-10-05T07:36:13.182Z,101203.00
2022-10-05T07:38:54.120Z,101197.00
2022-10-05T07:41:36.368Z,101186.00
2022-10-05T07:44:16.203Z,101184.00
2022-10-05T07:46:59.594Z,101179.00
2022-10-05T07:49:39.238Z,101192.00
2022-10-05T07:52:16.163Z,101190.00
2022-10-05T07:54:56.416Z,101194.00
2022-10-05T07:57:40.723Z,101179.00
2022-10-05T08:00:20.607Z,101188.00
2022-10-05T08:02:56.141Z,101199.00
2022-10-05T08:05:30.117Z,101189.00
2022-10-05T08:08:09.993Z,101193.00
2022-10-05T08:10:47.721Z,101171.00
2022-10-05T08:13:27.595Z,101187.00
2022-10-05T08:16:03.312Z,101187.00
2022-10-05T08:18:51.481Z,101200.00
2022-10-05T08:21:28.651Z,101190.00
2022-10-05T08:24:04.890Z,101188.00
2022-10-05T08:26:44.061Z,101175.00
2022-10-05T08:29:23.635Z,101165.00
2022-10-05T08:31:59.996Z,101159.00
2022-10-05T08:34:37.773Z,101152.00
2022-10-05T08:37:12.048Z,101153.00
2022-10-05T08:39:44.858Z,101154.00
2022-10-05T08:42:56.721Z,101148.00
2022-10-05T08:46:02.500Z,101150.00
2022-10-05T08:49:05.096Z,101137.00
2022-10-05T08:52:12.620Z,101131.00
2022-10-05T08:55:38.885Z,101138.00
2022-10-05T08:58:40.417Z,101136.00
2022-10-05T09:01:23.901Z,101127.00
2022-10-05T09:04:20.575Z,101125.00
2022-10-05T09:07:12.465Z,101124.00
2022-10-05T09:10:23.823Z,101131.00
2022-10-05T09:13:34.168Z,101138.00
2022-10-05T09:16:36.778Z,101137.00
2022-10-05T09:19:55.940Z,101140.00
2022-10-05T09:23:00.349Z,101121.00
2022-10-05T09:25:46.198Z,101121.00
2022-10-05T09:28:28.928Z,101123.00
2022-10-05T09:31:34.366Z,101127.00
2022-10-05T09:34:56.617Z,101123.00
2022-10-05T09:37:59.254Z,101123.00
2022-10-05T09:41:21.727Z,101122.00
2022-10-05T09:44:40.608Z,101117.00
2022-10-05T09:48:07.384Z,101094.00
2022-10-05T09:51:21.826Z,101095.00
2022-10-05T09:54:32.721Z,101101.00
2022-10-05T09:57:53.242Z,101100.00
2022-10-05T10:00:31.415Z,101108.00
2022-10-05T10:03:29.502Z,101104.00
2022-10-05T10:06:32.874Z,101099.00
2022-10-05T10:09:21.581Z,101103.00
2022-10-05T10:12:38.281Z,101099.00
2022-10-05T10:15:36.972Z,101090.00
2022-10-05T10:18:55.511Z,101086.00
2022-10-05T10:22:20.466Z,101088.00
2022-10-05T10:25:34.962Z,101091.00
2022-10-05T10:28:42.789Z,101094.00
2022-10-05T10:31:36.888Z,101085.00
2022-10-05T10:34:48.822Z,101088.00
2022-10-05T10:37:58.001Z,101087.00
2022-10-05T10:40:41.701Z,101086.00
2022-10-05T10:43:41.261Z,101094.00
2022-10-05T10:46:25.116Z,101102.00
2022-10-05T10:49:06.825Z,101114.00
2022-10-05T10:52:11.869Z,101112.00
2022-10-05T10:55:13.134Z,101105.00
2022-10-05T10:58:15.925Z,101107.00
2022-10-05T11:00:54.926Z,101105.00
2022-10-05T11:04:02.762Z,101101.00
2022-10-05T11:07:27.346Z,101110.00
2022-10-05T11:10:21.281Z,101102.00
2022-10-05T11:13:30.292Z,101103.00
2022-10-05T11:16:21.830Z,101095.00
2022-10-05T11:19:40.763Z,101088.00
2022-10-05T11:22:43.894Z,101081.00
2022-10-05T11:25:58.392Z,101079.00
2022-10-05T11:28:50.160Z,101088.00
2022-10-05T11:31:43.724Z,101076.00
2022-10-05T11:35:16.441Z,101076.00
2022-10-05T11:38:28.427Z,101066.00
2022-10-05T11:41:46.723Z,101056.00
2022-10-05T11:45:11.853Z,101053.00
2022-10-05T11:48:01.685Z,101050.00
2022-10-05T11:50:42.799Z,101053.00
2022-10-05T11:53:22.910Z,101043.00
2022-10-05T11:56:04.621Z,101046.00
2022-10-05T11:58:46.415Z,101046.00
2022-10-05T12:01:25.276Z,101044.00
2022-10-05T12:04:05.845Z,101046.00
2022-10-05T12:07:00.005Z,101040.00
2022-10-05T12:10:10.646Z,101048.00
2022-10-05T12:12:46.868Z,101036.00
2022-10-05T12:15:27.850Z,101043.00
2022-10-05T12:18:08.546Z,101036.00
2022-10-05T12:20:47.158Z,101027.00
2022-10-05T12:23:25.057Z,101027.00
2022-10-05T12:26:01.724Z,101029.00
2022-10-05T12:28:40.012Z,101026.00
2022-10-05T12:31:29.914Z,101028.00
2022-10-05T12:34:10.377Z,101026.00
2022-10-05T12:37:03.568Z,101032.00
2022-10-05T12:39:45.966Z,101018.00
2022-10-05T12:42:30.589Z,101019.00
2022-10-05T12:45:24.040Z,101018.00
2022-10-05T12:48:19.271Z,101001.00
2022-10-05T12:50:52.615Z,101005.00
2022-10-05T12:53:43.051Z,101003.00
2022-10-05T12:56:19.015Z,100998.00
2022-10-05T12:58:57.009Z,100998.00
2022-10-05T13:01:38.917Z,100999.00
2022-10-05T13:04:28.832Z,100985.00
2022-10-05T13:07:38.779Z,100992.00
2022-10-05T13:10:29.291Z,100996.00
2022-10-05T13:13:33.868Z,100990.00
2022-10-05T13:16:18.006Z,100985.00
2022-10-05T13:19:16.114Z,100998.00
2022-10-05T13:22:05.206Z,100998.00
2022-10-05T13:24:43.345Z,100986.00
2022-10-05T13:27:22.139Z,100986.00
2022-10-05T13:30:01.883Z,100985.00
2022-10-05T13:32:39.106Z,100986.00
2022-10-05T13:35:33.960Z,100985.00
2022-10-05T13:38:14.166Z,100988.00
2022-10-05T13:40:50.432Z,100990.00
2022-10-05T13:43:30.933Z,100983.00
2022-10-05T13:46:12.909Z,100981.00
2022-10-05T13:48:59.041Z,100978.00
2022-10-05T13:51:41.345Z,100974.00
2022-10-05T13:54:24.504Z,100973.00
2022-10-05T13:57:02.306Z,100969.00
2022-10-05T13:59:42.545Z,100968.00
2022-10-05T14:02:18.718Z,100969.00
2022-10-05T14:04:52.597Z,100963.00
2022-10-05T14:07:35.166Z,100972.00
2022-10-05T14:10:15.193Z,100960.00
2022-10-05T14:12:48.517Z,100961.00
2022-10-05T14:15:32.543Z,100960.00
2022-10-05T14:18:03.500Z,100958.00
2022-10-05T14:20:35.930Z,100962.00
2022-10-05T14:23:22.158Z,100954.00
2022-10-05T14:25:55.318Z,100952.00
2022-10-05T14:28:31.445Z,100951.00
2022-10-05T14:31:04.214Z,100947.00
2022-10-05T14:33:37.125Z,100951.00
2022-10-05T14:36:16.372Z,100946.00
2022-10-05T14:39:02.296Z,100949.00
2022-10-05T14:41:37.982Z,100947.00
2022-10-05T14:47:04.055Z,100944.00
2022-10-05T14:49:37.497Z,100940.00
2022-10-05T14:52:32.795Z,100934.00
2022-10-05T14:55:21.485Z,100934.00
2022-10-05T14:58:05.138Z,100925.00
2022-10-05T15:00:48.832Z,100930.00
2022-10-05T15:03:35.686Z,100915.00
2022-10-05T15:06:11.831Z,100916.00
2022-10-05T15:09:12.462Z,100914.00
2022-10-05T15:11:54.645Z,100912.00
2022-10-05T15:14:29.990Z,100921.00
2022-10-05T15:17:05.436Z,100925.00
2022-10-05T15:19:48.813Z,100912.00
2022-10-05T15:22:31.909Z,100917.00
2022-10-05T15:25:16.773Z,100912.00
2022-10-05T15:28:00.075Z,100916.00
2022-10-05T15:30:30.637Z,100910.00
2022-10-05T15:33:13.150Z,100915.00
2022-10-05T15:36:06.545Z,100908.00
2022-10-05T15:38:45.889Z,100917.00
2022-10-05T15:41:21.620Z,100909.00
2022-10-05T15:44:07.374Z,100915.00
2022-10-05T15:46:51.375Z,100913.00
2022-10-05T15:49:33.222Z,100913.00
2022-10-05T15:52:11.550Z,100912.00
2022-10-05T15:55:23.131Z,100918.00
2022-10-05T15:58:09.958Z,100915.00
2022-10-05T16:00:50.358Z,100919.00
2022-10-05T16:03:30.245Z,100926.00
2022-10-05T16:06:20.613Z,100920.00
2022-10-05T16:09:09.883Z,100918.00
2022-10-05T16:12:04.242Z,100922.00
2022-10-05T16:14:55.229Z,100913.00
2022-10-05T16:17:51.870Z,100919.00
2022-10-05T16:20:41.224Z,100917.00
2022-10-05T16:23:25.271Z,100916.00
2022-10-05T16:26:13.590Z,100913.00
2022-10-05T16:28:55.984Z,100907.00
2022-10-05T16:31:37.601Z,100907.00
2022-10-05T16:34:25.140Z,100904.00
2022-10-05T16:37:03.609Z,100906.00
2022-10-05T16:40:01.953Z,100898.00
2022-10-05T16:42:57.357Z,100893.00
2022-10-05T16:45:45.672Z,100894.00
2022-10-05T16:48:27.699Z,100887.00
2022-10-05T16:51:19.701Z,100890.00
2022-10-05T16:54:02.583Z,100899.00
2022-10-05T16:56:42.117Z,100904.00
2022-10-05T16:59:57.179Z,100901.00
2022-10-05T17:02:48.819Z,100906.00
2022-10-05T17:05:44.411Z,100901.00
2022-10-05T17:08:45.669Z,100904.00
2022-10-05T17:11:36.280Z,100897.00
2022-10-05T17:14:27.429Z,100899.00
2022-10-05T17:17:25.350Z,100893.00
2022-10-05T17:20:15.836Z,100904.00
2022-10-05T17:22:55.147Z,100907.00
2022-10-05T17:25:42.055Z,100912.00
2022-10-05T17:28:40.188Z,100908.00
2022-10-05T17:31:19.096Z,100913.00
2022-10-05T17:34:26.454Z,100916.00
2022-10-05T17:37:03.229Z,100912.00
2022-10-05T17:39:53.516Z,100921.00
2022-10-05T17:42:51.840Z,100914.00
2022-10-05T17:46:01.491Z,100914.00
2022-10-05T17:49:01.491Z,100918.00
2022-10-05T17:52:13.453Z,100922.00
2022-10-05T17:55:30.723Z,100919.00
2022-10-05T17:59:06.362Z,100922.00
2022-10-05T18:01:40.034Z,100916.00
2022-10-05T18:04:42.429Z,100919.00
2022-10-05T18:07:26.839Z,100920.00
2022-10-05T18:10:21.696Z,100915.00
2022-10-05T18:12:54.556Z,100914.00
2022-10-05T18:15:52.018Z,100918.00
2022-10-05T18:19:01.017Z,100919.00
2022-10-05T18:21:43.263Z,100906.00
2022-10-05T18:24:55.903Z,100912.00
2022-10-05T18:28:10.001Z,100913.00
2022-10-05T18:31:02.035Z,100899.00
2022-10-05T18:33:54.808Z,100910.00
2022-10-05T18:36:44.800Z,100912.00
2022-10-05T18:39:31.315Z,100910.00
2022-10-05T18:42:11.734Z,100904.00
2022-10-05T18:44:48.177Z,100911.00
2022-10-05T18:47:30.201Z,100917.00
2022-10-05T18:50:21.437Z,100908.00
2022-10-05T18:53:20.061Z,100915.00
2022-10-05T18:55:57.735Z,100911.00
2022-10-05T18:58:36.841Z,100912.00
2022-10-05T19:01:51.415Z,100913.00
2022-10-05T19:04:33.435Z,100912.00
2022-10-05T19:07:18.434Z,100908.00
2022-10-05T19:10:06.935Z,100909.00
2022-10-05T19:12:52.939Z,100907.00
2022-10-05T19:15:31.706Z,100909.00
2022-10-05T19:18:36.366Z,100912.00
2022-10-05T19:21:25.228Z,100912.00
2022-10-05T19:24:45.504Z,100914.00
2022-10-05T19:27:29.265Z,100913.00
2022-10-05T19:30:20.573Z,100917.00
2022-10-05T19:33:14.419Z,100929.00
2022-10-05T19:35:58.665Z,100921.00
2022-10-05T19:38:40.145Z,100919.00
2022-10-05T19:41:19.257Z,100930.00
2022-10-05T19:44:10.099Z,100927.00
2022-10-05T19:46:59.257Z,100937.00
2022-10-05T19:49:43.740Z,100946.00
2022-10-05T19:52:25.073Z,100940.00
2022-10-05T19:55:16.869Z,100955.00
2022-10-05T19:57:51.886Z,100952.00
2022-10-05T20:00:31.422Z,100957.00
2022-10-05T20:03:19.231Z,100951.00
2022-10-05T20:05:50.460Z,100961.00
2022-10-05T20:08:27.259Z,100956.00
2022-10-05T20:11:15.618Z,100966.00
2022-10-05T20:13:48.870Z,100967.00
2022-10-05T20:16:45.475Z,100962.00
2022-10-05T20:19:51.830Z,100968.00
2022-10-05T20:22:46.518Z,100976.00
2022-10-05T20:25:33.723Z,100969.00
2022-10-05T20:28:07.429Z,100975.00
2022-10-05T20:30:37.595Z,100985.00
2022-10-05T20:33:11.753Z,100986.00
2022-10-05T20:35:41.919Z,100984.00
2022-10-05T20:38:11.982Z,100997.00
2022-10-05T20:40:42.232Z,100995.00
2022-10-05T20:43:14.893Z,100990.00
2022-10-05T20:45:45.984Z,101000.00
2022-10-05T20:48:18.006Z,101006.00
2022-10-05T20:50:48.262Z,101009.00
2022-10-05T20:53:18.489Z,101006.00
2022-10-05T20:55:48.660Z,101016.00
2022-10-05T20:58:21.324Z,101012.00
2022-10-05T21:01:03.968Z,101013.00
2022-10-05T21:03:34.161Z,101016.00
2022-10-05T21:06:04.388Z,101020.00
2022-10-05T21:08:34.666Z,101023.00
2022-10-05T21:11:09.039Z,101031.00
2022-10-05T21:13:44.859Z,101035.00
2022-10-05T21:16:16.919Z,101033.00
2022-10-05T21:18:49.119Z,101037.00
2022-10-05T21:21:20.287Z,101033.00
2022-10-05T21:23:51.442Z,101031.00
2022-10-05T21:26:21.604Z,101041.00
2022-10-05T21:28:54.428Z,101038.00
2022-10-05T21:31:24.852Z,101035.00
2022-10-05T21:33:55.148Z,101037.00
2022-10-05T21:36:26.292Z,101035.00
2022-10-05T21:38:57.680Z,101039.00
2022-10-05T21:41:27.933Z,101039.00
2022-10-05T21:44:00.633Z,101042.00
2022-10-05T21:46:31.902Z,101040.00
2022-10-05T21:49:02.066Z,101048.00
2022-10-05T21:51:32.357Z,101056.00
2022-10-05T21:54:06.877Z,101062.00
2022-10-05T21:56:41.076Z,101054.00
2022-10-05T21:59:16.408Z,101059.00
2022-10-05T22:01:46.643Z,101055.00
2022-10-05T22:04:16.735Z,101062.00
2022-10-05T22:06:47.647Z,101060.00
2022-10-05T22:09:17.859Z,101056.00
2022-10-05T22:11:50.322Z,101062.00
2022-10-05T22:14:23.181Z,101058.00
2022-10-05T22:16:53.441Z,101064.00
2022-10-05T22:19:23.905Z,101064.00
2022-10-05T22:21:54.203Z,101068.00
2022-10-05T22:24:24.419Z,101060.00
2022-10-05T22:26:54.591Z,101065.00
2022-10-05T22:29:27.551Z,101074.00
2022-10-05T22:31:58.981Z,101072.00
2022-10-05T22:34:29.120Z,101075.00
2022-10-05T22:36:59.559Z,101067.00
2022-10-05T22:39:29.873Z,101075.00
2022-10-05T22:42:00.688Z,101073.00
2022-10-05T22:44:33.367Z,101079.00
2022-10-05T22:47:04.324Z,101077.00
2022-10-05T22:49:34.462Z,101079.00
2022-10-05T22:52:04.713Z,101081.00
2022-10-05T22:54:37.302Z,101084.00
2022-10-05T22:57:07.766Z,101085.00
2022-10-05T22:59:40.516Z,101086.00
2022-10-05T23:02:10.794Z,101087.00
2022-10-05T23:04:40.966Z,101085.00
2022-10-05T23:07:11.084Z,101086.00
2022-10-05T23:09:41.261Z,101091.00
2022-10-05T23:12:11.789Z,101086.00
2022-10-05T23:14:44.551Z,101092.00
2022-10-05T23:17:14.778Z,101085.00
2022-10-05T23:19:44.913Z,101102.00
2022-10-05T23:22:15.192Z,101096.00
2022-10-05T23:24:45.315Z,101101.00
2022-10-05T23:27:15.780Z,101090.00
2022-10-05T23:29:48.457Z,101107.00
2022-10-05T23:32:18.553Z,101102.00
2022-10-05T23:34:48.817Z,101102.00
2022-10-05T23:37:22.731Z,101101.00
2022-10-05T23:39:52.863Z,101105.00
2022-10-05T23:42:23.187Z,101117.00
2022-10-05T23:44:55.977Z,101115.00
2022-10-05T23:47:26.154Z,101119.00
2022-10-05T23:49:56.192Z,101121.00
2022-10-05T23:52:26.548Z,101127.00
2022-10-05T23:54:56.651Z,101120.00
2022-10-05T23:57:26.819Z,101129.00
